EIHN weather

Hacketstown Aerodrome
Hacketstown, County Carlow, Ireland

Public forecast

Using degrees Celsius for public forecast. Weather courtesy of forecast.io.

Closest aviation weather report (METAR) to Hacketstown Aerodrome

Closest report is Casement Air Base, 27.0 nm (50.1 km) N. Retrieved 2020/07/08 00:00 UTC (18 minutes ago):

EIME 080000Z 04005KT 3000 -RADZ BKN002 OVC005 12/12 Q1014

Closest aviation forecast (TAF) to Hacketstown Aerodrome

Closest forecast is Dublin Airport, 35.4 nm (65.6 km) NNE. Retrieved 2020-07-08 00:10 UTC (8 minutes ago):

TAF EIDW 072300Z 0800/0824 04008KT 7000 -DZ SCT003 BKN010 TEMPO 0800/0803 2500 -RADZ BR BKN003 BECMG 0803/0805 9999 NSW SCT007 BKN015 PROB40 TEMPO 0803/0809 4000 -DZ BKN007 BECMG 0807/0809 08007KT BECMG 0809/0811 SCT010 BKN025 TEMPO 0812/0818 5000 -RA BKN010 BECMG 0818/0820 03005KT 5000 -DZ SCT005 BKN008 TEMPO 0818/0824 3000 -RADZ BKN005 PROB40 TEMPO 0819/0823 1500 BR BKN002